Time;durP1;ratioP1;P1;durP2;ratioP2;P2;SDS_P1;SDS_P2;PMS_P1;PMS_P2;Temp;Humidity;BMP_temperature;BMP_pressure;BME280_temperature;BME280_humidity;BME280_pressure;Samples;Min_cycle;Max_cycle;Signal;HPM_P1;HPM_P2
2021/12/13 00:00:38;;;;;;;112.20;50.15;;;;;;;-0.13;100.00;101467.27;5312515;55;1145201;-80
2021/12/13 00:05:52;;;;;;;112.63;51.00;;;;;;;-0.09;100.00;101463.73;5234757;56;1145390;-78
2021/12/13 00:11:11;;;;;;;121.17;52.00;;;;;;;-0.10;100.00;101461.58;5236025;56;1145179;-80
2021/12/13 00:16:30;;;;;;;122.60;52.17;;;;;;;-0.13;100.00;101473.77;5240902;56;1145457;-79
2021/12/13 00:21:41;;;;;;;117.17;54.53;;;;;;;-0.10;100.00;101481.08;5241311;56;1143081;-79
2021/12/13 00:26:50;;;;;;;122.57;55.60;;;;;;;-0.09;100.00;101479.34;5240635;56;1143175;-79
2021/12/13 00:32:04;;;;;;;120.07;52.57;;;;;;;-0.08;100.00;101479.31;5239110;56;1143094;-80
2021/12/13 00:37:23;;;;;;;119.25;54.83;;;;;;;-0.09;100.00;101472.39;5240857;56;1143096;-79
2021/12/13 00:42:36;;;;;;;114.30;50.77;;;;;;;-0.12;100.00;101480.69;5239997;56;1143053;-79
2021/12/13 00:47:43;;;;;;;110.10;51.50;;;;;;;-0.13;100.00;101476.38;5241139;56;1143184;-79
2021/12/13 00:52:51;;;;;;;115.30;54.03;;;;;;;-0.16;100.00;101473.85;5233856;56;1143042;-78
2021/12/13 00:58:19;;;;;;;127.65;55.58;;;;;;;-0.19;100.00;101470.86;5206577;56;1143140;-79
2021/12/13 01:03:46;;;;;;;141.23;59.27;;;;;;;-0.19;100.00;101475.20;5213651;56;1145374;-79
2021/12/13 01:09:41;;;;;;;133.20;57.20;;;;;;;-0.18;100.00;101483.42;5216878;56;1145178;-79
2021/12/13 01:14:57;;;;;;;125.27;55.97;;;;;;;-0.18;100.00;101482.12;5218903;56;1145234;-78
2021/12/13 01:20:11;;;;;;;112.53;52.63;;;;;;;-0.18;100.00;101491.22;5217186;56;1145253;-80
2021/12/13 01:30:50;;;;;;;125.00;57.57;;;;;;;-0.12;100.00;101493.69;5217668;56;1145178;-79
2021/12/13 01:36:00;;;;;;;118.27;54.40;;;;;;;-0.13;100.00;101500.63;5217688;56;1145223;-78
2021/12/13 01:41:12;;;;;;;131.83;60.07;;;;;;;-0.09;100.00;101505.34;5217969;56;1145418;-79
2021/12/13 01:46:21;;;;;;;126.60;54.20;;;;;;;-0.12;100.00;101492.39;5217733;56;1145536;-79
2021/12/13 01:51:33;;;;;;;118.60;52.73;;;;;;;-0.07;100.00;101503.57;5217575;56;1145487;-80
2021/12/13 02:02:25;;;;;;;132.63;58.93;;;;;;;0.04;100.00;101500.77;5233159;55;1143231;-80
2021/12/13 02:07:39;;;;;;;133.57;60.37;;;;;;;0.07;100.00;101500.27;5219911;56;1140958;-78
2021/12/13 02:12:54;;;;;;;115.10;53.98;;;;;;;0.14;100.00;101497.13;5219513;56;1141029;-79
2021/12/13 02:17:57;;;;;;;116.17;52.90;;;;;;;0.13;100.00;101497.56;5219355;56;1141028;-79
2021/12/13 02:23:03;;;;;;;106.30;50.17;;;;;;;0.13;100.00;101497.56;5219881;56;1140982;-79
2021/12/13 02:28:14;;;;;;;114.75;51.53;;;;;;;0.20;100.00;101503.49;5219838;56;1141057;-78
2021/12/13 02:33:24;;;;;;;121.37;54.07;;;;;;;0.19;100.00;101499.17;5218283;56;1138944;-79
2021/12/13 02:38:30;;;;;;;115.17;49.10;;;;;;;0.18;100.00;101502.66;5219576;56;1143089;-80
2021/12/13 02:43:41;;;;;;;111.80;53.27;;;;;;;0.18;100.00;101498.76;5219867;56;1143136;-79
2021/12/13 02:48:54;;;;;;;115.92;54.25;;;;;;;0.21;100.00;101496.11;5232756;55;1143408;-79
2021/12/13 02:54:17;;;;;;;117.50;52.87;;;;;;;0.22;100.00;101498.68;5229596;56;1143643;-79
2021/12/13 02:59:26;;;;;;;102.07;49.60;;;;;;;0.28;100.00;101503.78;5207452;56;1143489;-79
2021/12/13 03:04:33;;;;;;;118.17;53.47;;;;;;;0.35;100.00;101507.95;5216384;56;1143241;-79
2021/12/13 03:09:42;;;;;;;121.50;54.90;;;;;;;0.36;100.00;101506.21;5217782;56;1143145;-79
2021/12/13 03:14:53;;;;;;;116.37;53.57;;;;;;;0.40;100.00;101500.51;5217565;56;1143155;-79
2021/12/13 03:20:18;;;;;;;115.42;54.75;;;;;;;0.45;100.00;101506.48;5217348;56;1143191;-79
2021/12/13 03:26:06;;;;;;;115.67;54.60;;;;;;;0.49;100.00;101504.21;5217644;56;1143453;-79
2021/12/13 03:31:23;;;;;;;133.57;56.87;;;;;;;0.46;100.00;101493.41;5217760;56;1143422;-78
2021/12/13 03:36:40;;;;;;;232.07;97.33;;;;;;;0.47;100.00;101489.07;5216104;56;1143109;-78
2021/12/13 03:41:49;;;;;;;244.50;95.93;;;;;;;0.47;100.00;101493.83;5226467;56;1143134;-79
2021/12/13 03:47:02;;;;;;;281.10;91.97;;;;;;;0.45;100.00;101496.94;5206929;56;1143165;-80
2021/12/13 03:52:10;;;;;;;195.97;66.80;;;;;;;0.47;100.00;101500.34;5244799;56;1141002;-79
2021/12/13 03:57:19;;;;;;;160.30;67.47;;;;;;;0.49;100.00;101503.77;5316877;55;1141391;-79
2021/12/13 04:02:30;;;;;;;134.23;57.60;;;;;;;0.46;100.00;101512.94;5289287;55;1141232;-80
2021/12/13 04:07:46;;;;;;;135.43;58.77;;;;;;;0.47;100.00;101509.89;5237758;56;1140431;-79
2021/12/13 04:12:56;;;;;;;396.90;140.40;;;;;;;0.51;100.00;101507.20;5241411;56;1141067;-79
2021/12/13 04:18:26;;;;;;;131.03;55.50;;;;;;;0.51;100.00;101510.25;5241531;56;1143141;-79
2021/12/13 04:23:21;;;;;;;142.67;58.70;;;;;;;0.49;100.00;101515.92;5237768;56;1141052;-79
2021/12/13 04:28:33;;;;;;;142.37;61.40;;;;;;;0.47;100.00;101516.39;5241519;56;1141115;-79
2021/12/13 04:33:46;;;;;;;126.73;54.90;;;;;;;0.50;100.00;101522.84;5241569;56;1141374;-79
2021/12/13 04:38:59;;;;;;;110.30;51.97;;;;;;;0.57;100.00;101524.45;5242023;56;1138987;-77
2021/12/13 04:44:36;;;;;;;123.15;54.88;;;;;;;0.53;100.00;101534.06;5241478;56;1143350;-78
2021/12/13 04:49:46;;;;;;;103.73;47.63;;;;;;;0.53;100.00;101539.27;5225217;56;1143068;-78
2021/12/13 04:54:56;;;;;;;99.30;49.73;;;;;;;0.51;100.00;101536.27;5278542;55;1143036;-80
2021/12/13 05:00:06;;;;;;;110.20;53.43;;;;;;;0.49;100.00;101530.23;5314025;55;1141499;-79
2021/12/13 05:05:13;;;;;;;115.23;56.80;;;;;;;0.51;100.00;101534.53;5258908;55;1143616;-78
2021/12/13 05:10:23;;;;;;;115.97;56.53;;;;;;;0.58;100.00;101540.48;5280489;55;1143193;-79
2021/12/13 05:15:28;;;;;;;118.00;56.00;;;;;;;0.64;100.00;101540.34;5331566;55;1143253;-79
2021/12/13 05:20:39;;;;;;;154.70;64.97;;;;;;;0.68;100.00;101544.60;5331468;55;1143162;-80
2021/12/13 05:25:58;;;;;;;115.03;52.00;;;;;;;0.65;100.00;101536.85;5331517;55;1143191;-77
2021/12/13 05:31:09;;;;;;;108.30;50.17;;;;;;;0.60;100.00;101538.27;5331575;55;1143607;-78
2021/12/13 05:36:25;;;;;;;109.87;51.40;;;;;;;0.57;100.00;101538.33;5331468;55;1143423;-79
2021/12/13 05:41:31;;;;;;;132.33;57.23;;;;;;;0.55;100.00;101550.51;5331761;55;1143121;-78
2021/12/13 05:59:23;;;;;;;113.63;53.03;;;;;;;0.68;100.00;101556.31;5388154;54;46287;-78
2021/12/13 06:04:42;;;;;;;122.47;55.60;;;;;;;0.63;100.00;101562.91;5117882;57;1139109;-77
2021/12/13 06:09:58;;;;;;;168.20;69.20;;;;;;;0.59;100.00;101565.63;5026460;58;1143472;-78
2021/12/13 06:15:24;;;;;;;194.47;83.37;;;;;;;0.63;100.00;101568.56;5011134;58;1143441;-78
2021/12/13 06:20:40;;;;;;;172.90;78.87;;;;;;;0.71;100.00;101573.19;5096764;58;1143278;-78
2021/12/13 06:25:50;;;;;;;166.27;75.87;;;;;;;0.77;100.00;101577.39;5075043;58;1143265;-77
2021/12/13 06:31:11;;;;;;;125.47;55.97;;;;;;;0.78;100.00;101574.76;5017569;57;1143463;-78
2021/12/13 06:36:28;;;;;;;112.57;53.70;;;;;;;0.79;100.00;101573.02;5046631;58;1143510;-78
2021/12/13 06:41:44;;;;;;;116.07;53.93;;;;;;;0.75;100.00;101575.29;5111077;57;1143457;-78
2021/12/13 06:47:03;;;;;;;122.40;58.37;;;;;;;0.72;100.00;101587.06;5100651;57;1143249;-78
2021/12/13 06:52:17;;;;;;;119.60;51.80;;;;;;;0.74;100.00;101602.21;5041234;57;1141180;-78
2021/12/13 06:57:27;;;;;;;113.25;50.60;;;;;;;0.79;100.00;101610.33;5035584;58;1141306;-78
2021/12/13 07:02:50;;;;;;;118.23;56.53;;;;;;;0.76;100.00;101616.92;5031002;58;1141111;-77
2021/12/13 07:08:19;;;;;;;112.67;50.83;;;;;;;0.70;100.00;101624.84;5017068;58;1141155;-77
2021/12/13 07:13:39;;;;;;;107.78;50.67;;;;;;;0.64;100.00;101631.45;5009958;59;1141127;-78
2021/12/13 07:18:54;;;;;;;112.65;52.13;;;;;;;0.63;100.00;101635.80;5013474;57;1143278;-77
2021/12/13 07:24:09;;;;;;;112.60;53.38;;;;;;;0.63;100.00;101638.84;5108671;57;1143233;-78
2021/12/13 07:29:23;;;;;;;117.33;53.47;;;;;;;0.63;100.00;101644.05;5025240;58;1143300;-77
2021/12/13 07:34:29;;;;;;;122.90;54.18;;;;;;;0.65;100.00;101644.89;5041758;58;1143294;-78
2021/12/13 07:39:35;;;;;;;117.33;56.23;;;;;;;0.67;100.00;101647.88;5045424;58;1143252;-77
2021/12/13 07:44:45;;;;;;;129.50;58.90;;;;;;;0.68;100.00;101644.39;5055470;58;1143270;-78
2021/12/13 07:49:55;;;;;;;129.93;59.40;;;;;;;0.68;100.00;101641.79;5056671;58;1143321;-77
2021/12/13 07:55:22;;;;;;;129.00;58.50;;;;;;;0.72;100.00;101646.95;5100733;57;1143209;-78
2021/12/13 08:00:35;;;;;;;127.55;57.90;;;;;;;0.74;100.00;101648.64;5142681;56;1143272;-77
2021/12/13 08:05:51;;;;;;;143.80;69.23;;;;;;;0.80;100.00;101652.84;5106726;56;1143245;-78
2021/12/13 08:11:02;;;;;;;123.37;54.30;;;;;;;0.82;100.00;101664.95;5055024;57;1143507;-78
2021/12/13 08:16:10;;;;;;;127.60;55.67;;;;;;;0.87;100.00;101660.97;5055581;57;1143270;-78
2021/12/13 08:21:26;;;;;;;123.60;52.77;;;;;;;0.89;100.00;101670.92;5054833;57;1143129;-79
2021/12/13 08:26:39;;;;;;;128.40;57.50;;;;;;;0.86;100.00;101668.38;5097362;56;1143402;-78
2021/12/13 08:31:49;;;;;;;123.22;54.53;;;;;;;0.81;100.00;101681.47;5154206;56;1143207;-77
2021/12/13 08:36:56;;;;;;;126.27;53.83;;;;;;;0.83;100.00;101678.39;5125094;56;1143245;-78
2021/12/13 08:42:15;;;;;;;128.47;57.80;;;;;;;0.82;100.00;101684.93;5121738;56;1143200;-78
2021/12/13 08:47:25;;;;;;;132.03;58.30;;;;;;;0.80;100.00;101691.47;5121787;57;1141149;-78
2021/12/13 08:52:39;;;;;;;129.77;57.43;;;;;;;0.79;100.00;101696.70;5121678;57;1141630;-78
2021/12/13 08:57:57;;;;;;;123.13;53.73;;;;;;;0.80;100.00;101694.52;5056622;57;1141416;-79
2021/12/13 09:03:34;;;;;;;178.53;77.10;;;;;;;0.85;100.00;101714.39;5026945;57;1141065;-78
2021/12/13 09:08:50;;;;;;;127.20;58.67;;;;;;;0.92;100.00;101718.58;5026993;58;1141828;-78
2021/12/13 09:14:17;;;;;;;145.47;63.00;;;;;;;0.94;100.00;101714.64;5027212;57;1139191;-81
2021/12/13 09:19:33;;;;;;;148.43;59.83;;;;;;;1.00;100.00;101731.03;5027290;56;1143231;-82
2021/12/13 09:24:46;;;;;;;133.37;58.20;;;;;;;1.00;100.00;101731.03;5027221;57;1143312;-82
2021/12/13 09:30:14;;;;;;;144.65;60.40;;;;;;;1.04;100.00;101734.00;5027701;58;1143255;-80
2021/12/13 09:35:36;;;;;;;133.80;58.70;;;;;;;1.04;100.00;101725.33;5045015;57;1143061;-81
2021/12/13 09:40:44;;;;;;;141.73;64.30;;;;;;;1.05;100.00;101723.14;5028233;57;1143190;-81
2021/12/13 09:45:56;;;;;;;157.43;67.57;;;;;;;1.11;100.00;101728.21;5028309;58;1143253;-82
2021/12/13 09:51:16;;;;;;;180.10;78.10;;;;;;;1.14;100.00;101729.46;5036305;57;1143346;-81
2021/12/13 09:56:26;;;;;;;160.77;65.90;;;;;;;1.12;100.00;101728.63;5110167;57;1143256;-81
2021/12/13 10:01:38;;;;;;;166.33;70.97;;;;;;;1.12;100.00;101723.41;5176729;57;1143313;-82
2021/12/13 10:06:51;;;;;;;152.83;64.97;;;;;;;1.21;100.00;101723.70;5183247;57;1143265;-82
2021/12/13 10:12:09;;;;;;;172.93;67.10;;;;;;;1.24;100.00;101734.03;5182772;56;1143467;-82
2021/12/13 10:17:18;;;;;;;154.63;65.97;;;;;;;1.26;100.00;101722.70;5182307;56;1143472;-82
2021/12/13 10:22:28;;;;;;;143.57;63.57;;;;;;;1.25;100.00;101724.89;5182629;56;1143288;-82
2021/12/13 10:27:35;;;;;;;155.63;65.87;;;;;;;1.30;100.00;101731.31;5182558;57;1143098;-82
2021/12/13 10:32:42;;;;;;;177.83;69.23;;;;;;;1.33;100.00;101727.36;5206623;55;1141110;-81
2021/12/13 10:37:56;;;;;;;284.47;100.73;;;;;;;1.34;100.00;101729.08;5216818;56;1141074;-83
2021/12/13 10:43:10;;;;;;;181.27;76.97;;;;;;;1.26;100.00;101723.14;5217284;55;1143439;-81
2021/12/13 10:48:16;;;;;;;;;;;;;;;1.28;100.00;101727.44;5220477;55;1141061;-82
2021/12/13 10:53:26;;;;;;;167.97;70.67;;;;;;;1.34;100.00;101727.77;5204455;55;972109;-83
2021/12/13 10:58:36;;;;;;;198.23;73.53;;;;;;;1.36;100.00;101715.57;5126066;56;1139152;-80
2021/12/13 11:03:43;;;;;;;192.83;79.77;;;;;;;1.36;100.00;101718.17;5048384;57;1141355;-81
2021/12/13 11:08:50;;;;;;;180.50;76.47;;;;;;;1.37;100.00;101712.94;5131232;57;1141141;-81
2021/12/13 11:14:01;;;;;;;167.70;70.40;;;;;;;1.43;100.00;101708.02;5144107;57;1141081;-81
2021/12/13 11:19:12;;;;;;;165.53;71.37;;;;;;;1.45;100.00;101701.03;5103028;57;1141198;-81
2021/12/13 11:24:22;;;;;;;166.63;61.87;;;;;;;1.48;100.00;101696.20;5100021;58;1141124;-82
2021/12/13 11:29:28;;;;;;;164.43;71.57;;;;;;;1.50;100.00;101703.11;5100888;58;1138966;-81
2021/12/13 11:35:29;;;;;;;155.60;64.33;;;;;;;1.47;100.00;101704.47;5099824;58;1153049;-83
2021/12/13 11:41:22;;;;;;;156.53;62.13;;;;;;;1.44;100.00;101704.97;5100145;58;1143466;-80
2021/12/13 11:46:58;;;;;;;139.97;61.33;;;;;;;1.43;100.00;101696.29;5100149;58;1143587;-83
2021/12/13 11:52:25;;;;;;;167.37;73.17;;;;;;;1.48;100.00;101698.81;5095175;58;1143128;-79
2021/12/13 11:58:16;;;;;;;125.63;45.70;;;;;;;1.49;100.00;101694.87;5208526;56;1143244;-82
2021/12/13 12:03:57;;;;;;;161.77;62.73;;;;;;;1.45;100.00;101702.78;5172072;56;1141657;-82
2021/12/13 12:09:22;;;;;;;127.73;53.37;;;;;;;1.42;100.00;101698.48;4915791;60;1141363;-83
2021/12/13 12:14:29;;;;;;;124.53;52.23;;;;;;;1.46;100.00;101691.46;4916361;60;1139288;-83
2021/12/13 12:19:45;;;;;;;196.43;78.77;;;;;;;1.52;100.00;101702.63;4915482;60;1141325;-82
2021/12/13 12:24:54;;;;;;;156.47;57.70;;;;;;;1.53;100.00;101704.80;4910422;60;1143281;-83
2021/12/13 12:30:07;;;;;;;140.50;53.13;;;;;;;1.54;100.00;101699.96;4818710;60;1143325;-81
2021/12/13 12:35:21;;;;;;;;;;;;;;;1.50;100.00;101687.91;4801635;60;1143443;-81
2021/12/13 12:40:52;;;;;;;119.23;49.50;;;;;;;1.57;100.00;101698.59;4846416;60;974344;-81
2021/12/13 12:46:06;;;;;;;128.30;55.03;;;;;;;1.57;100.00;101694.24;4847890;58;1141319;-82
2021/12/13 12:51:23;;;;;;;154.27;64.87;;;;;;;1.64;100.00;101694.54;5016370;58;1145151;-81
2021/12/13 12:56:45;;;;;;;199.47;69.23;;;;;;;1.65;100.00;101704.08;5160938;57;1143232;-81
2021/12/13 13:01:58;;;;;;;116.85;46.05;;;;;;;1.61;100.00;101706.77;5198931;56;1143229;-82
2021/12/13 13:07:10;;;;;;;118.63;49.10;;;;;;;1.54;100.00;101711.69;5207841;55;1143231;-85
2021/12/13 13:12:35;;;;;;;82.80;35.07;;;;;;;1.51;100.00;101711.78;5213604;56;1143303;-83
2021/12/13 13:17:48;;;;;;;96.93;40.57;;;;;;;1.49;100.00;101710.52;5224908;55;1141714;-83
2021/12/13 13:22:58;;;;;;;108.45;41.45;;;;;;;1.49;100.00;101706.60;5251249;55;1141392;-84
2021/12/13 13:28:23;;;;;;;124.27;47.90;;;;;;;1.53;100.00;101708.70;5277371;55;1143223;-84
2021/12/13 13:33:37;;;;;;;149.30;59.50;;;;;;;1.56;100.00;101723.81;5259476;55;1141196;-84
2021/12/13 13:38:43;;;;;;;127.27;49.58;;;;;;;1.57;100.00;101726.84;5260291;55;1141224;-84
2021/12/13 13:43:51;;;;;;;142.17;58.30;;;;;;;1.54;100.00;101732.11;5259149;55;1141091;-83
2021/12/13 13:49:02;;;;;;;140.13;59.83;;;;;;;1.60;100.00;101734.59;5268318;55;1141164;-81
2021/12/13 13:54:07;;;;;;;153.77;60.37;;;;;;;1.68;100.00;101741.80;5256707;55;1141209;-81
2021/12/13 13:59:17;;;;;;;141.43;60.00;;;;;;;1.79;100.00;101748.55;5215405;55;1143238;-81
2021/12/13 14:04:27;;;;;;;162.37;69.77;;;;;;;1.88;100.00;101757.47;5224762;55;1141128;-84
2021/12/13 14:09:44;;;;;;;159.27;67.97;;;;;;;1.90;100.00;101769.59;5225221;55;1141146;-82
2021/12/13 14:14:57;;;;;;;140.13;60.60;;;;;;;1.86;100.00;101769.23;5222541;55;1141512;-84
2021/12/13 14:20:39;;;;;;;120.40;49.93;;;;;;;1.85;100.00;101764.05;5208264;55;1242183;-82
2021/12/13 14:26:07;;;;;;;263.50;89.20;;;;;;;1.87;100.00;101768.34;5223793;56;1143171;-80
2021/12/13 14:31:21;;;;;;;149.90;61.40;;;;;;;1.92;100.00;101778.25;5226771;55;1143168;-83
2021/12/13 14:36:40;;;;;;;148.00;60.98;;;;;;;1.90;100.00;101780.03;5200613;55;1143438;-83
2021/12/13 14:41:55;;;;;;;186.17;79.00;;;;;;;1.86;100.00;101782.72;5131070;57;1143271;-84
2021/12/13 14:47:10;;;;;;;183.83;77.93;;;;;;;1.82;100.00;101783.70;5141942;56;1143217;-81
2021/12/13 14:52:23;;;;;;;147.40;59.67;;;;;;;1.83;100.00;101783.67;5157134;55;1143137;-81
2021/12/13 14:57:33;;;;;;;152.55;61.45;;;;;;;1.89;100.00;101783.97;5176656;56;1145261;-80
2021/12/13 15:02:49;;;;;;;161.20;68.90;;;;;;;1.90;100.00;101789.16;5196441;56;1143175;-82
2021/12/13 15:07:55;;;;;;;142.55;59.90;;;;;;;1.90;100.00;101793.06;5174987;56;1143215;-81
2021/12/13 15:13:06;;;;;;;156.97;64.07;;;;;;;1.82;100.00;101795.44;5210748;56;1143141;-81
2021/12/13 15:18:15;;;;;;;329.53;137.33;;;;;;;1.78;100.00;101786.81;5114860;57;1143456;-82
2021/12/13 15:23:28;;;;;;;208.93;84.80;;;;;;;1.75;100.00;101792.95;5172782;56;1145294;-82
2021/12/13 15:28:39;;;;;;;124.47;46.92;;;;;;;1.79;100.00;101787.23;5045564;56;1143187;-81
2021/12/13 15:33:47;;;;;;;157.47;56.93;;;;;;;1.82;100.00;101791.09;5161544;55;1141235;-82
2021/12/13 15:38:56;;;;;;;137.67;55.90;;;;;;;1.85;100.00;101797.95;5172840;56;1141223;-82
2021/12/13 15:44:04;;;;;;;122.90;55.27;;;;;;;1.83;100.00;101796.72;5161685;56;1141066;-82
2021/12/13 15:49:31;;;;;;;146.83;60.07;;;;;;;1.85;100.00;101796.66;5174587;56;1141103;-82
2021/12/13 15:54:47;;;;;;;146.83;63.10;;;;;;;1.87;100.00;101796.18;5225306;56;1141115;-80
2021/12/13 15:59:57;;;;;;;196.93;87.87;;;;;;;1.82;100.00;101795.44;5199241;56;1141181;-79
2021/12/13 16:05:10;;;;;;;140.83;57.20;;;;;;;1.72;100.00;101812.56;5244811;56;1141081;-82
2021/12/13 16:10:20;;;;;;;114.05;49.25;;;;;;;1.57;100.00;101826.36;5173662;56;1141415;-81
2021/12/13 16:15:30;;;;;;;95.73;42.67;;;;;;;1.48;100.00;101811.77;5208102;56;21508;-80
2021/12/13 16:20:43;;;;;;;125.57;48.27;;;;;;;1.52;100.00;101817.78;5225233;56;1136983;-81
2021/12/13 16:26:00;;;;;;;145.00;54.85;;;;;;;1.62;100.00;101820.17;5220883;56;1143788;-79
2021/12/13 16:31:23;;;;;;;214.38;75.08;;;;;;;1.67;100.00;101822.25;5202824;55;1143149;-81
2021/12/13 16:36:37;;;;;;;249.80;101.67;;;;;;;1.64;100.00;101830.13;5247588;55;1143290;-82
2021/12/13 16:41:47;;;;;;;225.10;99.95;;;;;;;1.62;100.00;101838.42;5236459;56;1145632;-82
2021/12/13 16:46:57;;;;;;;318.30;132.57;;;;;;;1.64;100.00;101831.44;5233292;56;1143234;-79
2021/12/13 16:52:10;;;;;;;276.67;92.47;;;;;;;1.70;100.00;101822.16;5218403;56;1145367;-78
2021/12/13 16:57:21;;;;;;;;;;;;;;;1.72;100.00;101823.44;5186666;56;1143068;-77
2021/12/13 17:02:28;;;;;;;243.10;95.33;;;;;;;1.68;100.00;101828.33;5161578;56;974327;-78
2021/12/13 17:07:39;;;;;;;273.37;112.87;;;;;;;1.62;100.00;101826.69;5175941;56;1141197;-78
2021/12/13 17:13:10;;;;;;;181.50;78.83;;;;;;;1.63;100.00;101821.89;5174602;56;1145285;-83
2021/12/13 17:18:35;;;;;;;156.80;70.03;;;;;;;1.63;100.00;101818.42;5183142;55;1143101;-84
2021/12/13 17:23:51;;;;;;;122.73;57.83;;;;;;;1.71;100.00;101823.88;5179048;56;1145261;-79
2021/12/13 17:29:25;;;;;;;142.93;58.70;;;;;;;1.72;100.00;101828.22;5162662;56;1143144;-81
2021/12/13 17:34:56;;;;;;;125.18;52.78;;;;;;;1.62;100.00;101834.52;5149375;56;1141307;-80
2021/12/13 17:40:25;;;;;;;150.83;66.00;;;;;;;1.61;100.00;101825.41;5141500;57;1141223;-80
2021/12/13 17:45:55;;;;;;;185.70;76.30;;;;;;;1.62;100.00;101830.60;5180495;56;1143196;-82
2021/12/13 17:51:11;;;;;;;197.23;86.13;;;;;;;1.63;100.00;101843.20;5175396;56;1143397;-82
2021/12/13 17:56:33;;;;;;;207.70;77.43;;;;;;;1.59;100.00;101843.69;5238297;55;1143187;-81
2021/12/13 18:01:57;;;;;;;158.05;69.20;;;;;;;1.58;100.00;101840.67;5268906;55;1143286;-83
2021/12/13 18:07:06;;;;;;;173.87;73.17;;;;;;;1.66;100.00;101841.84;5268231;55;1143469;-83
2021/12/13 18:12:33;;;;;;;176.17;76.90;;;;;;;1.71;100.00;101841.28;5271181;55;1143234;-80
2021/12/13 18:17:44;;;;;;;201.07;82.27;;;;;;;1.79;100.00;101856.35;5271272;55;1145379;-83
2021/12/13 18:23:27;;;;;;;203.87;85.97;;;;;;;1.85;100.00;101852.73;5267199;55;1143287;-82
2021/12/13 18:28:47;;;;;;;156.83;64.50;;;;;;;1.85;100.00;101861.42;5277283;55;1143464;-82
2021/12/13 18:34:06;;;;;;;188.93;79.57;;;;;;;1.87;100.00;101859.65;5276017;55;1143230;-80
2021/12/13 18:39:21;;;;;;;209.67;92.23;;;;;;;1.90;100.00;101858.28;5272444;55;1143305;-81
2021/12/13 18:44:37;;;;;;;237.97;108.20;;;;;;;1.95;100.00;101851.69;5274430;55;1141027;-82
2021/12/13 18:49:45;;;;;;;150.82;67.42;;;;;;;1.95;100.00;101849.94;5262543;55;1143305;-81
2021/12/13 18:55:22;;;;;;;133.70;55.27;;;;;;;1.90;100.00;101853.07;5238769;55;1141163;-82
2021/12/13 19:00:40;;;;;;;138.53;57.30;;;;;;;1.85;100.00;101841.86;5176073;56;1141222;-80
2021/12/13 19:06:11;;;;;;;146.13;62.97;;;;;;;1.81;100.00;101845.89;5149138;56;1141304;-83
2021/12/13 19:11:22;;;;;;;126.70;56.83;;;;;;;1.80;100.00;101844.17;5142141;56;1143252;-82
2021/12/13 19:16:50;;;;;;;142.93;59.37;;;;;;;1.76;100.00;101840.31;5142211;57;1142754;-83
2021/12/13 19:22:01;;;;;;;131.43;56.13;;;;;;;1.76;100.00;101840.76;5147120;57;1143129;-81
2021/12/13 19:27:19;;;;;;;143.87;58.80;;;;;;;1.78;100.00;101844.64;5146853;57;1143595;-82
2021/12/13 19:32:33;;;;;;;152.43;67.10;;;;;;;1.84;100.00;101841.89;5130389;56;1143379;-80
2021/12/13 19:37:48;;;;;;;161.18;66.35;;;;;;;1.92;100.00;101842.16;5146125;56;1143222;-82
2021/12/13 19:43:08;;;;;;;151.40;65.30;;;;;;;1.96;100.00;101841.22;5147120;57;1143203;-82
2021/12/13 19:48:21;;;;;;;196.40;80.47;;;;;;;1.87;100.00;101841.83;5146983;57;1143072;-83
2021/12/13 19:53:57;;;;;;;234.10;90.60;;;;;;;1.73;100.00;101841.67;5162857;56;1143263;-82
2021/12/13 19:59:16;;;;;;;177.10;74.77;;;;;;;1.72;100.00;101841.25;5171151;56;1143727;-83
2021/12/13 20:04:35;;;;;;;160.55;65.28;;;;;;;1.79;100.00;101840.70;5167091;56;1143279;-80
2021/12/13 20:09:49;;;;;;;591.10;239.70;;;;;;;1.89;100.00;101835.70;5146893;57;1141142;-81
2021/12/13 20:14:57;;;;;;;;;;;;;;;1.94;100.00;101841.69;5156938;57;1143422;-84
2021/12/13 20:20:16;;;;;;;319.40;119.73;;;;;;;1.95;100.00;101839.50;5198335;56;972356;-82
2021/12/13 20:25:35;;;;;;;344.90;128.90;;;;;;;2.01;100.00;101848.48;5231620;56;1141106;-81
2021/12/13 20:30:51;;;;;;;375.47;146.87;;;;;;;2.10;100.00;101847.45;5236700;56;1145336;-81
2021/12/13 20:36:08;;;;;;;266.83;100.67;;;;;;;2.16;100.00;101847.30;5236615;56;1143230;-84
2021/12/13 20:41:23;;;;;;;147.23;63.93;;;;;;;2.16;100.00;101839.46;5241356;56;1141742;-80
2021/12/13 20:46:39;;;;;;;197.07;78.40;;;;;;;2.14;100.00;101843.03;5235074;56;1143143;-80
2021/12/13 20:51:49;;;;;;;226.43;87.63;;;;;;;2.13;100.00;101850.44;5086453;57;1143504;-80
2021/12/13 20:56:58;;;;;;;182.57;70.70;;;;;;;2.15;100.00;101846.02;5099068;57;1143207;-81
2021/12/13 21:02:14;;;;;;;162.47;67.03;;;;;;;2.11;100.00;101841.34;5251857;55;1143351;-80
2021/12/13 21:21:55;;;;;;;230.20;81.60;;;;;;;2.06;100.00;101840.13;5195946;56;46327;-79
2021/12/13 21:27:20;;;;;;;161.37;63.60;;;;;;;1.83;100.00;101825.85;4978504;58;1139041;-82
2021/12/13 21:32:30;;;;;;;210.00;70.27;;;;;;;1.80;100.00;101824.61;4969536;58;1143341;-82
2021/12/13 21:43:02;;;;;;;174.60;69.10;;;;;;;1.76;100.00;101840.31;5016227;58;1145289;-81
2021/12/13 21:48:13;;;;;;;196.33;75.67;;;;;;;1.73;100.00;101837.76;5010763;58;1143483;-82
2021/12/13 21:53:42;;;;;;;187.70;71.95;;;;;;;1.71;100.00;101838.67;5010212;58;1143251;-81
2021/12/13 21:58:58;;;;;;;180.60;71.20;;;;;;;1.74;100.00;101842.09;5037462;58;1143513;-81
2021/12/13 22:04:24;;;;;;;187.57;75.47;;;;;;;1.72;100.00;101839.09;4961156;59;1143275;-81
2021/12/13 22:09:50;;;;;;;257.87;99.93;;;;;;;1.80;100.00;101840.26;4974316;58;1143161;-81
2021/12/13 22:15:03;;;;;;;295.07;103.33;;;;;;;1.85;100.00;101830.56;4974742;58;1143225;-81
2021/12/13 22:20:19;;;;;;;196.98;70.85;;;;;;;1.83;100.00;101823.24;4969927;58;1143554;-82
2021/12/13 22:25:32;;;;;;;158.17;57.23;;;;;;;1.85;100.00;101826.66;4964633;58;1141632;-80
2021/12/13 22:30:45;;;;;;;133.30;52.33;;;;;;;1.84;100.00;101824.94;4963737;58;1141207;-80
2021/12/13 22:35:54;;;;;;;204.65;76.15;;;;;;;1.78;100.00;101835.52;4962847;58;1141381;-81
2021/12/13 22:41:16;;;;;;;252.70;90.50;;;;;;;1.70;100.00;101825.22;4885644;59;1141206;-80
2021/12/13 22:46:26;;;;;;;176.70;69.97;;;;;;;1.72;100.00;101828.22;4885254;59;1141081;-82
2021/12/13 22:51:35;;;;;;;186.73;68.93;;;;;;;1.78;100.00;101830.30;4885333;59;1141230;-83
2021/12/13 22:56:44;;;;;;;225.07;79.90;;;;;;;1.87;100.00;101827.04;4885421;59;1141652;-79
2021/12/13 23:01:57;;;;;;;264.23;118.43;;;;;;;1.94;100.00;101818.20;4904794;59;21632;-82
2021/12/13 23:07:09;;;;;;;156.18;65.62;;;;;;;1.97;100.00;101805.55;4885939;59;1140989;-79
2021/12/13 23:17:58;;;;;;;178.00;65.63;;;;;;;2.03;100.00;101781.91;4885824;59;1143448;-80
2021/12/13 23:23:05;;;;;;;156.20;56.40;;;;;;;1.99;100.00;101781.11;4891042;59;1143229;-82
2021/12/13 23:28:16;;;;;;;128.23;48.57;;;;;;;1.95;100.00;101792.98;4885610;60;1143239;-81
2021/12/13 23:33:27;;;;;;;152.97;53.17;;;;;;;1.89;100.00;101797.02;4886246;59;1143309;-80
2021/12/13 23:49:13;;;;;;;162.47;59.40;;;;;;;1.87;100.00;101789.66;5048092;57;1143657;-81
2021/12/13 23:54:19;;;;;;;145.70;55.90;;;;;;;1.88;100.00;101796.59;5048307;57;1145391;-81
2021/12/13 23:59:26;;;;;;;164.57;50.67;;;;;;;1.98;100.00;101787.26;5048160;57;1143261;-81
